sensor_id;sensor_type;location;lat;lon;timestamp;pressure;altitude;pressure_sealevel;temperature;humidity
15382;BME280;7789;51.364;12.358;2023-01-31T00:03:36;100452.03;;;6.27;97.69
15382;BME280;7789;51.364;12.358;2023-01-31T00:08:42;100459.38;;;6.21;97.09
15382;BME280;7789;51.364;12.358;2023-01-31T00:13:46;100476.53;;;6.23;96.50
15382;BME280;7789;51.364;12.358;2023-01-31T00:18:49;100483.84;;;6.31;95.52
15382;BME280;7789;51.364;12.358;2023-01-31T00:23:54;100481.03;;;6.34;95.25
15382;BME280;7789;51.364;12.358;2023-01-31T00:29:02;100480.75;;;6.38;94.86
15382;BME280;7789;51.364;12.358;2023-01-31T00:34:05;100480.97;;;6.35;95.30
15382;BME280;7789;51.364;12.358;2023-01-31T00:39:10;100480.78;;;6.24;95.53
15382;BME280;7789;51.364;12.358;2023-01-31T00:44:14;100486.44;;;6.17;95.63
15382;BME280;7789;51.364;12.358;2023-01-31T00:49:17;100497.09;;;6.26;94.39
15382;BME280;7789;51.364;12.358;2023-01-31T00:54:22;100496.34;;;6.24;94.29
15382;BME280;7789;51.364;12.358;2023-01-31T00:59:25;100488.78;;;6.07;94.99
15382;BME280;7789;51.364;12.358;2023-01-31T01:04:29;100497.78;;;5.88;94.76
15382;BME280;7789;51.364;12.358;2023-01-31T01:09:34;100505.94;;;5.82;95.00
15382;BME280;7789;51.364;12.358;2023-01-31T01:14:37;100519.13;;;5.77;94.76
15382;BME280;7789;51.364;12.358;2023-01-31T01:19:40;100546.31;;;5.86;93.85
15382;BME280;7789;51.364;12.358;2023-01-31T01:24:45;100543.50;;;5.75;94.75
15382;BME280;7789;51.364;12.358;2023-01-31T01:29:48;100541.41;;;5.81;94.93
15382;BME280;7789;51.364;12.358;2023-01-31T01:34:52;100549.94;;;5.83;94.71
15382;BME280;7789;51.364;12.358;2023-01-31T01:39:57;100540.31;;;5.85;94.95
15382;BME280;7789;51.364;12.358;2023-01-31T01:45:02;100549.94;;;5.83;94.85
15382;BME280;7789;51.364;12.358;2023-01-31T01:50:11;100543.72;;;5.86;94.88
15382;BME280;7789;51.364;12.358;2023-01-31T01:55:20;100554.09;;;5.86;95.06
15382;BME280;7789;51.364;12.358;2023-01-31T02:00:27;100563.38;;;5.90;94.85
15382;BME280;7789;51.364;12.358;2023-01-31T02:05:34;100562.16;;;5.95;95.43
15382;BME280;7789;51.364;12.358;2023-01-31T02:10:56;100567.94;;;6.00;95.24
15382;BME280;7789;51.364;12.358;2023-01-31T02:16:01;100573.19;;;5.99;95.72
15382;BME280;7789;51.364;12.358;2023-01-31T02:21:32;100551.63;;;5.98;97.59
15382;BME280;7789;51.364;12.358;2023-01-31T02:26:59;100562.94;;;5.97;97.56
15382;BME280;7789;51.364;12.358;2023-01-31T02:32:49;100584.22;;;6.02;97.49
15382;BME280;7789;51.364;12.358;2023-01-31T02:38:04;100593.03;;;6.00;97.34
15382;BME280;7789;51.364;12.358;2023-01-31T02:43:17;100596.34;;;6.02;96.77
15382;BME280;7789;51.364;12.358;2023-01-31T02:48:29;100598.31;;;5.98;96.52
15382;BME280;7789;51.364;12.358;2023-01-31T02:53:41;100602.84;;;5.95;96.63
15382;BME280;7789;51.364;12.358;2023-01-31T02:58:53;100609.78;;;5.94;95.77
15382;BME280;7789;51.364;12.358;2023-01-31T03:04:02;100628.22;;;5.90;95.55
15382;BME280;7789;51.364;12.358;2023-01-31T03:09:10;100634.91;;;5.94;95.43
15382;BME280;7789;51.364;12.358;2023-01-31T03:14:28;100639.81;;;5.98;95.70
15382;BME280;7789;51.364;12.358;2023-01-31T03:19:38;100653.44;;;6.02;96.15
15382;BME280;7789;51.364;12.358;2023-01-31T03:24:46;100650.75;;;6.03;95.41
15382;BME280;7789;51.364;12.358;2023-01-31T03:29:52;100656.78;;;6.04;95.72
15382;BME280;7789;51.364;12.358;2023-01-31T03:35:01;100657.63;;;6.04;95.73
15382;BME280;7789;51.364;12.358;2023-01-31T03:40:09;100650.84;;;6.02;95.09
15382;BME280;7789;51.364;12.358;2023-01-31T03:45:20;100650.94;;;6.00;95.37
15382;BME280;7789;51.364;12.358;2023-01-31T03:50:29;100665.66;;;6.00;95.70
15382;BME280;7789;51.364;12.358;2023-01-31T03:55:39;100658.72;;;6.00;95.15
15382;BME280;7789;51.364;12.358;2023-01-31T04:00:46;100662.16;;;6.01;95.69
15382;BME280;7789;51.364;12.358;2023-01-31T04:05:51;100650.75;;;6.03;95.03
15382;BME280;7789;51.364;12.358;2023-01-31T04:10:57;100663.81;;;6.02;94.89
15382;BME280;7789;51.364;12.358;2023-01-31T04:16:01;100667.44;;;5.99;94.77
15382;BME280;7789;51.364;12.358;2023-01-31T04:21:05;100665.78;;;5.98;95.66
15382;BME280;7789;51.364;12.358;2023-01-31T04:26:09;100676.41;;;5.94;95.98
15382;BME280;7789;51.364;12.358;2023-01-31T04:31:13;100670.75;;;5.87;96.78
15382;BME280;7789;51.364;12.358;2023-01-31T04:36:17;100671.91;;;5.82;97.20
15382;BME280;7789;51.364;12.358;2023-01-31T04:41:25;100675.59;;;5.78;98.25
15382;BME280;7789;51.364;12.358;2023-01-31T04:46:33;100692.00;;;5.78;98.50
15382;BME280;7789;51.364;12.358;2023-01-31T04:51:37;100694.59;;;5.78;99.27
15382;BME280;7789;51.364;12.358;2023-01-31T04:56:44;100692.84;;;5.79;99.90
15382;BME280;7789;51.364;12.358;2023-01-31T05:01:47;100686.16;;;5.75;100.00
15382;BME280;7789;51.364;12.358;2023-01-31T05:06:55;100683.72;;;5.72;99.82
15382;BME280;7789;51.364;12.358;2023-01-31T05:11:58;100688.25;;;5.68;100.00
15382;BME280;7789;51.364;12.358;2023-01-31T05:17:02;100688.50;;;5.64;100.00
15382;BME280;7789;51.364;12.358;2023-01-31T05:22:06;100681.91;;;5.58;100.00
15382;BME280;7789;51.364;12.358;2023-01-31T05:27:14;100680.16;;;5.59;100.00
15382;BME280;7789;51.364;12.358;2023-01-31T05:32:18;100688.94;;;5.56;100.00
15382;BME280;7789;51.364;12.358;2023-01-31T05:37:23;100697.56;;;5.57;100.00
15382;BME280;7789;51.364;12.358;2023-01-31T05:42:26;100692.63;;;5.52;100.00
15382;BME280;7789;51.364;12.358;2023-01-31T05:47:29;100700.31;;;5.54;100.00
15382;BME280;7789;51.364;12.358;2023-01-31T05:52:34;100697.81;;;5.52;100.00
15382;BME280;7789;51.364;12.358;2023-01-31T05:57:39;100698.88;;;5.64;100.00
15382;BME280;7789;51.364;12.358;2023-01-31T06:02:43;100705.41;;;5.71;100.00
15382;BME280;7789;51.364;12.358;2023-01-31T06:07:48;100699.63;;;5.66;100.00
15382;BME280;7789;51.364;12.358;2023-01-31T06:12:52;100701.38;;;5.65;100.00
15382;BME280;7789;51.364;12.358;2023-01-31T06:17:55;100701.22;;;5.68;100.00
15382;BME280;7789;51.364;12.358;2023-01-31T06:23:00;100708.00;;;5.71;100.00
15382;BME280;7789;51.364;12.358;2023-01-31T06:28:03;100713.81;;;5.74;100.00
15382;BME280;7789;51.364;12.358;2023-01-31T06:33:06;100721.53;;;5.76;100.00
15382;BME280;7789;51.364;12.358;2023-01-31T06:38:11;100711.16;;;5.76;100.00
15382;BME280;7789;51.364;12.358;2023-01-31T06:43:17;100713.75;;;5.76;100.00
15382;BME280;7789;51.364;12.358;2023-01-31T06:48:20;100720.47;;;5.80;100.00
15382;BME280;7789;51.364;12.358;2023-01-31T06:53:24;100717.94;;;5.78;100.00
15382;BME280;7789;51.364;12.358;2023-01-31T06:58:28;100729.16;;;5.79;100.00
15382;BME280;7789;51.364;12.358;2023-01-31T07:03:34;100736.88;;;5.80;100.00
15382;BME280;7789;51.364;12.358;2023-01-31T07:08:38;100742.69;;;5.84;99.03
15382;BME280;7789;51.364;12.358;2023-01-31T07:13:42;100745.22;;;5.85;98.37
15382;BME280;7789;51.364;12.358;2023-01-31T07:18:46;100743.28;;;5.89;97.59
15382;BME280;7789;51.364;12.358;2023-01-31T07:23:51;100750.91;;;5.92;97.07
15382;BME280;7789;51.364;12.358;2023-01-31T07:28:54;100743.00;;;5.93;96.86
15382;BME280;7789;51.364;12.358;2023-01-31T07:33:58;100743.69;;;5.97;95.81
15382;BME280;7789;51.364;12.358;2023-01-31T07:39:02;100727.25;;;5.82;94.95
15382;BME280;7789;51.364;12.358;2023-01-31T07:44:07;100723.38;;;5.74;94.06
15382;BME280;7789;51.364;12.358;2023-01-31T07:49:13;100721.09;;;5.68;93.70
15382;BME280;7789;51.364;12.358;2023-01-31T07:54:18;100723.38;;;5.74;93.72
15382;BME280;7789;51.364;12.358;2023-01-31T07:59:29;100726.63;;;5.93;92.73
15382;BME280;7789;51.364;12.358;2023-01-31T08:04:34;100717.22;;;6.06;92.01
15382;BME280;7789;51.364;12.358;2023-01-31T08:09:39;100725.94;;;6.19;91.56
15382;BME280;7789;51.364;12.358;2023-01-31T08:14:44;100713.56;;;6.24;91.46
15382;BME280;7789;51.364;12.358;2023-01-31T08:19:47;100715.84;;;6.28;90.92
15382;BME280;7789;51.364;12.358;2023-01-31T08:24:52;100703.94;;;6.40;90.94
15382;BME280;7789;51.364;12.358;2023-01-31T08:29:55;100710.16;;;6.51;90.56
15382;BME280;7789;51.364;12.358;2023-01-31T08:34:58;100702.72;;;6.59;90.59
15382;BME280;7789;51.364;12.358;2023-01-31T08:40:04;100692.06;;;6.64;89.87
15382;BME280;7789;51.364;12.358;2023-01-31T08:45:08;100687.63;;;6.66;89.26
15382;BME280;7789;51.364;12.358;2023-01-31T08:50:12;100679.00;;;6.65;89.16
15382;BME280;7789;51.364;12.358;2023-01-31T08:55:30;100680.66;;;6.66;87.99
15382;BME280;7789;51.364;12.358;2023-01-31T09:00:34;100675.00;;;6.74;88.98
15382;BME280;7789;51.364;12.358;2023-01-31T09:05:37;100671.84;;;6.83;89.11
15382;BME280;7789;51.364;12.358;2023-01-31T09:10:42;100670.81;;;6.85;88.54
15382;BME280;7789;51.364;12.358;2023-01-31T09:15:45;100659.50;;;6.86;88.68
15382;BME280;7789;51.364;12.358;2023-01-31T09:20:48;100655.69;;;6.92;88.32
15382;BME280;7789;51.364;12.358;2023-01-31T09:25:54;100646.66;;;6.97;87.44
15382;BME280;7789;51.364;12.358;2023-01-31T09:31:01;100640.44;;;7.00;86.73
15382;BME280;7789;51.364;12.358;2023-01-31T09:36:07;100636.47;;;6.94;85.34
15382;BME280;7789;51.364;12.358;2023-01-31T09:41:18;100645.63;;;7.00;85.68
15382;BME280;7789;51.364;12.358;2023-01-31T09:46:28;100641.91;;;7.04;85.08
15382;BME280;7789;51.364;12.358;2023-01-31T09:51:33;100631.03;;;7.11;84.94
15382;BME280;7789;51.364;12.358;2023-01-31T09:56:44;100627.75;;;7.22;84.38
15382;BME280;7789;51.364;12.358;2023-01-31T10:01:56;100614.38;;;7.28;83.51
15382;BME280;7789;51.364;12.358;2023-01-31T10:07:05;100620.53;;;7.39;82.93
15382;BME280;7789;51.364;12.358;2023-01-31T10:12:17;100624.22;;;7.49;82.99
15382;BME280;7789;51.364;12.358;2023-01-31T10:17:24;100610.91;;;7.53;81.15
15382;BME280;7789;51.364;12.358;2023-01-31T10:22:35;100609.47;;;7.62;81.39
15382;BME280;7789;51.364;12.358;2023-01-31T10:27:45;100612.63;;;7.67;81.56
15382;BME280;7789;51.364;12.358;2023-01-31T10:32:55;100604.59;;;7.70;80.38
15382;BME280;7789;51.364;12.358;2023-01-31T10:38:04;100589.28;;;7.78;81.22
15382;BME280;7789;51.364;12.358;2023-01-31T10:43:19;100575.47;;;7.90;79.79
15382;BME280;7789;51.364;12.358;2023-01-31T10:48:23;100570.34;;;7.88;80.59
15382;BME280;7789;51.364;12.358;2023-01-31T10:53:38;100549.13;;;7.82;79.33
15382;BME280;7789;51.364;12.358;2023-01-31T10:58:48;100541.31;;;7.82;80.47
15382;BME280;7789;51.364;12.358;2023-01-31T11:03:54;100539.97;;;7.76;79.86
15382;BME280;7789;51.364;12.358;2023-01-31T11:08:59;100528.09;;;7.72;79.86
15382;BME280;7789;51.364;12.358;2023-01-31T11:14:09;100505.63;;;7.71;80.00
15382;BME280;7789;51.364;12.358;2023-01-31T11:19:24;100500.84;;;7.65;79.88
15382;BME280;7789;51.364;12.358;2023-01-31T11:24:32;100487.19;;;7.62;80.73
15382;BME280;7789;51.364;12.358;2023-01-31T11:29:39;100481.91;;;7.63;80.42
15382;BME280;7789;51.364;12.358;2023-01-31T11:34:54;100457.78;;;7.61;81.61
15382;BME280;7789;51.364;12.358;2023-01-31T11:39:59;100442.25;;;7.60;81.68
15382;BME280;7789;51.364;12.358;2023-01-31T11:45:16;100430.50;;;7.54;82.18
15382;BME280;7789;51.364;12.358;2023-01-31T11:50:22;100411.34;;;7.55;82.85
15382;BME280;7789;51.364;12.358;2023-01-31T11:55:35;100404.47;;;7.54;82.90
15382;BME280;7789;51.364;12.358;2023-01-31T12:00:50;100393.38;;;7.52;84.27
15382;BME280;7789;51.364;12.358;2023-01-31T12:06:00;100378.06;;;7.48;84.52
15382;BME280;7789;51.364;12.358;2023-01-31T12:11:05;100371.13;;;7.48;84.33
15382;BME280;7789;51.364;12.358;2023-01-31T12:16:10;100354.88;;;7.45;84.77
15382;BME280;7789;51.364;12.358;2023-01-31T12:21:15;100353.63;;;7.50;84.91
15382;BME280;7789;51.364;12.358;2023-01-31T12:26:27;100336.06;;;7.54;84.33
15382;BME280;7789;51.364;12.358;2023-01-31T12:31:45;100325.53;;;7.55;84.43
15382;BME280;7789;51.364;12.358;2023-01-31T12:37:04;100337.00;;;7.53;85.04
15382;BME280;7789;51.364;12.358;2023-01-31T12:42:28;100326.38;;;7.56;83.85
15382;BME280;7789;51.364;12.358;2023-01-31T12:53:23;100280.09;;;7.48;84.79
15382;BME280;7789;51.364;12.358;2023-01-31T12:58:39;100290.28;;;7.51;85.15
15382;BME280;7789;51.364;12.358;2023-01-31T13:04:11;100278.22;;;7.50;84.68
15382;BME280;7789;51.364;12.358;2023-01-31T13:09:20;100286.53;;;7.43;85.03
15382;BME280;7789;51.364;12.358;2023-01-31T13:14:29;100286.53;;;7.43;85.32
15382;BME280;7789;51.364;12.358;2023-01-31T13:19:38;100275.34;;;7.42;86.53
15382;BME280;7789;51.364;12.358;2023-01-31T13:24:47;100264.94;;;7.42;86.19
15382;BME280;7789;51.364;12.358;2023-01-31T13:29:58;100253.59;;;7.43;85.32
15382;BME280;7789;51.364;12.358;2023-01-31T13:35:08;100243.69;;;7.48;84.80
15382;BME280;7789;51.364;12.358;2023-01-31T13:40:18;100250.22;;;7.54;85.96
15382;BME280;7789;51.364;12.358;2023-01-31T13:45:26;100258.66;;;7.57;85.46
15382;BME280;7789;51.364;12.358;2023-01-31T13:50:36;100259.69;;;7.55;85.34
15382;BME280;7789;51.364;12.358;2023-01-31T13:55:44;100242.19;;;7.57;85.51
15382;BME280;7789;51.364;12.358;2023-01-31T14:00:55;100237.31;;;7.52;84.88
15382;BME280;7789;51.364;12.358;2023-01-31T14:06:01;100240.38;;;7.46;85.58
15382;BME280;7789;51.364;12.358;2023-01-31T14:11:32;100236.72;;;7.49;84.99
15382;BME280;7789;51.364;12.358;2023-01-31T14:16:40;100248.47;;;7.42;85.50
15382;BME280;7789;51.364;12.358;2023-01-31T14:21:53;100238.94;;;7.42;86.12
15382;BME280;7789;51.364;12.358;2023-01-31T14:26:58;100241.00;;;7.37;86.68
15382;BME280;7789;51.364;12.358;2023-01-31T14:32:12;100247.28;;;7.35;85.95
15382;BME280;7789;51.364;12.358;2023-01-31T14:37:24;100252.34;;;7.36;87.43
15382;BME280;7789;51.364;12.358;2023-01-31T14:42:48;100248.09;;;7.35;88.77
15382;BME280;7789;51.364;12.358;2023-01-31T14:48:10;100250.41;;;7.28;89.99
15382;BME280;7789;51.364;12.358;2023-01-31T14:58:46;100250.84;;;7.09;93.58
15382;BME280;7789;51.364;12.358;2023-01-31T15:03:52;100255.09;;;7.10;94.88
15382;BME280;7789;51.364;12.358;2023-01-31T15:09:38;100264.91;;;7.07;95.75
15382;BME280;7789;51.364;12.358;2023-01-31T15:14:42;100256.88;;;6.97;96.55
15382;BME280;7789;51.364;12.358;2023-01-31T15:19:51;100256.88;;;6.97;97.12
15382;BME280;7789;51.364;12.358;2023-01-31T15:25:06;100255.13;;;6.98;97.09
15382;BME280;7789;51.364;12.358;2023-01-31T15:30:12;100245.69;;;6.97;97.68
15382;BME280;7789;51.364;12.358;2023-01-31T15:35:24;100223.31;;;6.94;97.62
15382;BME280;7789;51.364;12.358;2023-01-31T15:40:32;100224.88;;;6.97;97.04
15382;BME280;7789;51.364;12.358;2023-01-31T15:45:36;100244.75;;;6.98;96.29
15382;BME280;7789;51.364;12.358;2023-01-31T15:50:49;100240.03;;;7.03;96.08
15382;BME280;7789;51.364;12.358;2023-01-31T15:56:00;100230.38;;;7.05;96.08
15382;BME280;7789;51.364;12.358;2023-01-31T16:01:05;100237.97;;;7.08;95.37
15382;BME280;7789;51.364;12.358;2023-01-31T16:06:20;100233.59;;;7.08;95.21
15382;BME280;7789;51.364;12.358;2023-01-31T16:11:27;100238.69;;;7.10;94.60
15382;BME280;7789;51.364;12.358;2023-01-31T16:16:34;100231.63;;;7.12;95.28
15382;BME280;7789;51.364;12.358;2023-01-31T16:21:40;100245.44;;;7.12;94.64
15382;BME280;7789;51.364;12.358;2023-01-31T16:26:53;100233.91;;;7.16;94.84
15382;BME280;7789;51.364;12.358;2023-01-31T16:31:57;100236.28;;;7.19;94.14
15382;BME280;7789;51.364;12.358;2023-01-31T16:37:03;100258.84;;;7.19;93.88
15382;BME280;7789;51.364;12.358;2023-01-31T16:42:20;100241.47;;;7.19;94.16
15382;BME280;7789;51.364;12.358;2023-01-31T16:47:44;100242.63;;;7.15;94.31
15382;BME280;7789;51.364;12.358;2023-01-31T16:53:06;100248.44;;;7.19;93.67
15382;BME280;7789;51.364;12.358;2023-01-31T16:58:12;100257.81;;;7.21;94.65
15382;BME280;7789;51.364;12.358;2023-01-31T17:03:36;100257.66;;;7.22;93.79
15382;BME280;7789;51.364;12.358;2023-01-31T17:08:40;100252.59;;;7.21;94.17
15382;BME280;7789;51.364;12.358;2023-01-31T17:13:46;100253.22;;;7.25;94.13
15382;BME280;7789;51.364;12.358;2023-01-31T17:18:51;100254.75;;;7.27;94.35
15382;BME280;7789;51.364;12.358;2023-01-31T17:23:55;100238.22;;;7.28;94.17
15382;BME280;7789;51.364;12.358;2023-01-31T17:29:00;100248.75;;;7.27;94.57
15382;BME280;7789;51.364;12.358;2023-01-31T17:34:06;100226.59;;;7.21;94.30
15382;BME280;7789;51.364;12.358;2023-01-31T17:39:13;100250.44;;;7.15;95.10
15382;BME280;7789;51.364;12.358;2023-01-31T17:44:18;100226.69;;;7.20;94.66
15382;BME280;7789;51.364;12.358;2023-01-31T17:49:23;100211.94;;;7.20;95.94
15382;BME280;7789;51.364;12.358;2023-01-31T17:54:27;100227.41;;;7.22;95.71
15382;BME280;7789;51.364;12.358;2023-01-31T17:59:32;100194.69;;;7.19;96.62
15382;BME280;7789;51.364;12.358;2023-01-31T18:04:35;100200.72;;;7.20;96.54
15382;BME280;7789;51.364;12.358;2023-01-31T18:09:38;100200.94;;;7.17;96.93
15382;BME280;7789;51.364;12.358;2023-01-31T18:14:43;100193.97;;;7.17;96.84
15382;BME280;7789;51.364;12.358;2023-01-31T18:19:46;100195.72;;;7.17;96.47
15382;BME280;7789;51.364;12.358;2023-01-31T18:24:50;100196.56;;;7.17;97.19
15382;BME280;7789;51.364;12.358;2023-01-31T18:29:55;100180.75;;;7.20;96.10
15382;BME280;7789;51.364;12.358;2023-01-31T18:34:59;100159.75;;;7.23;96.07
15382;BME280;7789;51.364;12.358;2023-01-31T18:40:03;100169.28;;;7.22;96.18
15382;BME280;7789;51.364;12.358;2023-01-31T18:45:09;100144.84;;;7.25;97.20
15382;BME280;7789;51.364;12.358;2023-01-31T18:50:13;100154.22;;;7.28;97.02
15382;BME280;7789;51.364;12.358;2023-01-31T18:55:17;100168.88;;;7.28;96.73
15382;BME280;7789;51.364;12.358;2023-01-31T19:00:23;100184.16;;;7.33;97.08
15382;BME280;7789;51.364;12.358;2023-01-31T19:05:40;100188.19;;;7.37;97.19
15382;BME280;7789;51.364;12.358;2023-01-31T19:11:04;100193.25;;;7.38;97.76
15382;BME280;7789;51.364;12.358;2023-01-31T19:16:13;100188.81;;;7.40;100.00
15382;BME280;7789;51.364;12.358;2023-01-31T19:21:31;100194.09;;;7.39;100.00
15382;BME280;7789;51.364;12.358;2023-01-31T19:26:39;100191.94;;;7.33;100.00
15382;BME280;7789;51.364;12.358;2023-01-31T19:31:47;100182.38;;;7.33;100.00
15382;BME280;7789;51.364;12.358;2023-01-31T19:36:51;100190.16;;;7.33;100.00
15382;BME280;7789;51.364;12.358;2023-01-31T19:41:58;100193.47;;;7.35;100.00
15382;BME280;7789;51.364;12.358;2023-01-31T19:47:03;100171.25;;;7.31;100.00
15382;BME280;7789;51.364;12.358;2023-01-31T19:52:06;100163.44;;;7.31;100.00
15382;BME280;7789;51.364;12.358;2023-01-31T19:57:10;100163.34;;;7.33;100.00
15382;BME280;7789;51.364;12.358;2023-01-31T20:02:15;100166.91;;;7.32;100.00
15382;BME280;7789;51.364;12.358;2023-01-31T20:07:19;100179.16;;;7.30;100.00
15382;BME280;7789;51.364;12.358;2023-01-31T20:12:25;100181.75;;;7.30;100.00
15382;BME280;7789;51.364;12.358;2023-01-31T20:17:34;100175.00;;;7.28;100.00
15382;BME280;7789;51.364;12.358;2023-01-31T20:22:37;100183.22;;;7.22;100.00
15382;BME280;7789;51.364;12.358;2023-01-31T20:27:43;100180.75;;;7.20;100.00
15382;BME280;7789;51.364;12.358;2023-01-31T20:32:48;100194.78;;;7.18;100.00
15382;BME280;7789;51.364;12.358;2023-01-31T20:37:53;100183.22;;;6.98;100.00
15382;BME280;7789;51.364;12.358;2023-01-31T20:42:56;100192.91;;;6.84;100.00
15382;BME280;7789;51.364;12.358;2023-01-31T20:48:03;100207.75;;;6.82;100.00
15382;BME280;7789;51.364;12.358;2023-01-31T20:53:17;100208.59;;;6.70;100.00
15382;BME280;7789;51.364;12.358;2023-01-31T20:58:53;100213.16;;;6.54;100.00
15382;BME280;7789;51.364;12.358;2023-01-31T21:03:59;100213.59;;;6.48;100.00
15382;BME280;7789;51.364;12.358;2023-01-31T21:09:10;100218.66;;;6.37;100.00
15382;BME280;7789;51.364;12.358;2023-01-31T21:14:29;100217.53;;;6.28;100.00
15382;BME280;7789;51.364;12.358;2023-01-31T21:19:34;100209.34;;;6.22;100.00
15382;BME280;7789;51.364;12.358;2023-01-31T21:24:39;100217.72;;;6.13;100.00
15382;BME280;7789;51.364;12.358;2023-01-31T21:29:47;100218.13;;;6.07;100.00
15382;BME280;7789;51.364;12.358;2023-01-31T21:35:16;100222.25;;;5.97;100.00
15382;BME280;7789;51.364;12.358;2023-01-31T21:40:22;100227.13;;;5.89;100.00
15382;BME280;7789;51.364;12.358;2023-01-31T21:45:34;100214.53;;;5.83;100.00
15382;BME280;7789;51.364;12.358;2023-01-31T21:50:49;100216.50;;;5.79;100.00
15382;BME280;7789;51.364;12.358;2023-01-31T21:56:00;100214.91;;;5.77;100.00
15382;BME280;7789;51.364;12.358;2023-01-31T22:01:08;100208.16;;;5.74;100.00
15382;BME280;7789;51.364;12.358;2023-01-31T22:06:19;100209.28;;;5.70;100.00
15382;BME280;7789;51.364;12.358;2023-01-31T22:11:24;100216.41;;;5.67;100.00
15382;BME280;7789;51.364;12.358;2023-01-31T22:16:36;100213.22;;;5.63;100.00
15382;BME280;7789;51.364;12.358;2023-01-31T22:21:52;100200.41;;;5.60;100.00
15382;BME280;7789;51.364;12.358;2023-01-31T22:26:56;100205.00;;;5.57;100.00
15382;BME280;7789;51.364;12.358;2023-01-31T22:32:00;100202.59;;;5.54;100.00
15382;BME280;7789;51.364;12.358;2023-01-31T22:37:12;100204.44;;;5.52;100.00
15382;BME280;7789;51.364;12.358;2023-01-31T22:42:21;100201.09;;;5.50;100.00
15382;BME280;7789;51.364;12.358;2023-01-31T22:47:29;100202.25;;;5.46;100.00
15382;BME280;7789;51.364;12.358;2023-01-31T22:52:34;100197.25;;;5.43;100.00
15382;BME280;7789;51.364;12.358;2023-01-31T22:57:40;100194.75;;;5.41;100.00
15382;BME280;7789;51.364;12.358;2023-01-31T23:02:47;100200.97;;;5.39;100.00
15382;BME280;7789;51.364;12.358;2023-01-31T23:07:54;100207.09;;;5.38;100.00
15382;BME280;7789;51.364;12.358;2023-01-31T23:13:02;100213.22;;;5.37;100.00
15382;BME280;7789;51.364;12.358;2023-01-31T23:18:07;100208.84;;;5.38;100.00
15382;BME280;7789;51.364;12.358;2023-01-31T23:23:14;100214.09;;;5.36;100.00
15382;BME280;7789;51.364;12.358;2023-01-31T23:28:19;100233.09;;;5.37;100.00
15382;BME280;7789;51.364;12.358;2023-01-31T23:33:25;100230.91;;;5.31;100.00
15382;BME280;7789;51.364;12.358;2023-01-31T23:38:34;100227.56;;;5.29;100.00
15382;BME280;7789;51.364;12.358;2023-01-31T23:43:41;100235.44;;;5.27;100.00
15382;BME280;7789;51.364;12.358;2023-01-31T23:48:46;100235.50;;;5.26;100.00
15382;BME280;7789;51.364;12.358;2023-01-31T23:53:54;100233.03;;;5.24;100.00
15382;BME280;7789;51.364;12.358;2023-01-31T23:59:00;100228.78;;;5.23;100.00
